Huron Regional Airport
KHON : now visible

Airfield :











YOU CAN JOIN US ON...

 
LOGIN :

Register | Disclaimer

   EN    FR    IT 

 









Legend :    VFR   Marginal VFR   IFR   Intensive IFR   Very Intensive IFR
Visi :
Ceiling :
>= 8 km
>= 3000ft
5 to 8 km
1000 to 3000 ft
1500m to 5 km
500 to 1000 ft
800 to 1500m
200 to 500 ft
< 800m
< 200 ft
Symbols :   Thunderstorms  Fog  Heavy snow  Heavy precipitations  Wind > 20 kt






- Airport Elevation : 1289 ft
- IATA code : HON


KHON - Huron Regional

CURRENT METAR :
  • 281545Z AUTO 17022G32KT 10SM BKN014 M08/M12 A3028 RMK AO2 PK WND 18032/1545 T10781117

EXPIRED METARs :
  • 281455Z AUTO 17016G24KT 10SM CLR M09/M12 A3028 RMK AO2 PK WND 17026/1431 SLP279 T10891117 53000
  • 281355Z AUTO 17015G26KT 10SM CLR M09/M12 A3027 RMK AO2 PK WND 15030/1334 SLP276 T10941122
  • 281255Z AUTO 16016G25KT 10SM CLR M09/M12 A3028 RMK AO2 PK WND 17034/1224 SLP279 T10941122

TAF KHON
Valid from the 28 at 12:00 until the 29 at 12:00 UTC


281124Z 2812/2912 16017G29KT P6SM SCT020
FM281800 16013G21KT P6SM SCT020
FM282300 13011KT P6SM SCT015 BKN120
FM290600 14009G17KT P6SM BKN015
KZMP FIR / North America



MET'MAP, your aeronautical weather chart ! - Copyright ORBIFLY December 2007 - Disclaimer

ORBIFLY MET'MAP TEAM :

Programming & Development : Alexandra Zaïnal
Concept & original design : Baudouin d'Aumeries
Assistance for programming : Marc-Olivier Méhu
Technical & hardware support : Manuel Goepfert

Contact : metmap@orbifly.com




SOURCES & CREDITS :

   NOAA       Earth
Advisory